sensor_id;sensor_type;location;lat;lon;timestamp;P1;durP1;ratioP1;P2;durP2;ratioP2
40433;SDS011;26146;51.114;5.654;2023-04-05T00:00:09;14.77;;;5.10;;
40433;SDS011;26146;51.114;5.654;2023-04-05T00:04:11;13.80;;;5.20;;
40433;SDS011;26146;51.114;5.654;2023-04-05T00:08:13;12.03;;;4.87;;
40433;SDS011;26146;51.114;5.654;2023-04-05T00:12:23;12.77;;;4.80;;
40433;SDS011;26146;51.114;5.654;2023-04-05T00:16:25;13.33;;;5.20;;
40433;SDS011;26146;51.114;5.654;2023-04-05T00:20:27;14.43;;;5.50;;
40433;SDS011;26146;51.114;5.654;2023-04-05T00:24:28;14.93;;;5.60;;
40433;SDS011;26146;51.114;5.654;2023-04-05T00:28:30;14.87;;;5.00;;
40433;SDS011;26146;51.114;5.654;2023-04-05T00:32:31;13.07;;;5.23;;
40433;SDS011;26146;51.114;5.654;2023-04-05T00:36:32;16.00;;;5.57;;
40433;SDS011;26146;51.114;5.654;2023-04-05T00:40:33;13.50;;;5.03;;
40433;SDS011;26146;51.114;5.654;2023-04-05T00:44:35;13.13;;;5.30;;
40433;SDS011;26146;51.114;5.654;2023-04-05T00:48:37;15.33;;;5.10;;
40433;SDS011;26146;51.114;5.654;2023-04-05T00:52:40;14.37;;;5.07;;
40433;SDS011;26146;51.114;5.654;2023-04-05T00:56:43;15.17;;;6.00;;
40433;SDS011;26146;51.114;5.654;2023-04-05T01:01:09;12.60;;;5.20;;
40433;SDS011;26146;51.114;5.654;2023-04-05T01:09:58;13.20;;;4.97;;
40433;SDS011;26146;51.114;5.654;2023-04-05T01:14:00;15.60;;;5.63;;
40433;SDS011;26146;51.114;5.654;2023-04-05T01:18:01;14.43;;;5.73;;
40433;SDS011;26146;51.114;5.654;2023-04-05T01:30:29;11.90;;;5.20;;
40433;SDS011;26146;51.114;5.654;2023-04-05T01:38:50;13.10;;;5.47;;
40433;SDS011;26146;51.114;5.654;2023-04-05T01:42:53;14.97;;;5.43;;
40433;SDS011;26146;51.114;5.654;2023-04-05T01:46:54;13.57;;;5.27;;
40433;SDS011;26146;51.114;5.654;2023-04-05T01:50:55;12.83;;;5.43;;
40433;SDS011;26146;51.114;5.654;2023-04-05T01:54:56;14.63;;;5.20;;
40433;SDS011;26146;51.114;5.654;2023-04-05T01:58:57;15.50;;;5.50;;
40433;SDS011;26146;51.114;5.654;2023-04-05T02:02:58;14.03;;;5.90;;
40433;SDS011;26146;51.114;5.654;2023-04-05T02:06:59;15.00;;;6.00;;
40433;SDS011;26146;51.114;5.654;2023-04-05T02:11:00;15.97;;;5.87;;
40433;SDS011;26146;51.114;5.654;2023-04-05T02:15:01;14.97;;;6.10;;
40433;SDS011;26146;51.114;5.654;2023-04-05T02:19:03;14.37;;;6.17;;
40433;SDS011;26146;51.114;5.654;2023-04-05T02:23:06;16.37;;;6.00;;
40433;SDS011;26146;51.114;5.654;2023-04-05T02:27:07;17.37;;;6.30;;
40433;SDS011;26146;51.114;5.654;2023-04-05T02:31:09;15.77;;;6.30;;
40433;SDS011;26146;51.114;5.654;2023-04-05T02:35:11;15.40;;;6.10;;
40433;SDS011;26146;51.114;5.654;2023-04-05T02:39:18;15.35;;;6.32;;
40433;SDS011;26146;51.114;5.654;2023-04-05T02:43:20;16.50;;;5.80;;
40433;SDS011;26146;51.114;5.654;2023-04-05T02:47:20;14.80;;;6.23;;
40433;SDS011;26146;51.114;5.654;2023-04-05T02:51:21;15.80;;;6.30;;
40433;SDS011;26146;51.114;5.654;2023-04-05T02:55:23;15.70;;;6.33;;
40433;SDS011;26146;51.114;5.654;2023-04-05T02:59:24;14.93;;;5.80;;
40433;SDS011;26146;51.114;5.654;2023-04-05T03:03:27;15.43;;;5.97;;
40433;SDS011;26146;51.114;5.654;2023-04-05T03:07:31;17.47;;;6.47;;
40433;SDS011;26146;51.114;5.654;2023-04-05T03:11:32;16.73;;;6.97;;
40433;SDS011;26146;51.114;5.654;2023-04-05T03:15:33;15.27;;;6.43;;
40433;SDS011;26146;51.114;5.654;2023-04-05T03:19:34;18.03;;;6.60;;
40433;SDS011;26146;51.114;5.654;2023-04-05T03:23:35;15.93;;;6.63;;
40433;SDS011;26146;51.114;5.654;2023-04-05T03:27:36;17.17;;;6.50;;
40433;SDS011;26146;51.114;5.654;2023-04-05T03:31:37;15.70;;;6.70;;
40433;SDS011;26146;51.114;5.654;2023-04-05T03:35:38;17.83;;;6.70;;
40433;SDS011;26146;51.114;5.654;2023-04-05T03:39:42;17.63;;;6.87;;
40433;SDS011;26146;51.114;5.654;2023-04-05T03:43:42;16.47;;;6.60;;
40433;SDS011;26146;51.114;5.654;2023-04-05T03:47:43;17.73;;;6.90;;
40433;SDS011;26146;51.114;5.654;2023-04-05T03:51:44;18.67;;;7.80;;
40433;SDS011;26146;51.114;5.654;2023-04-05T03:55:45;17.47;;;7.27;;
40433;SDS011;26146;51.114;5.654;2023-04-05T03:59:49;18.57;;;7.57;;
40433;SDS011;26146;51.114;5.654;2023-04-05T04:03:55;18.57;;;7.77;;
40433;SDS011;26146;51.114;5.654;2023-04-05T04:07:56;17.87;;;7.07;;
40433;SDS011;26146;51.114;5.654;2023-04-05T04:11:59;19.93;;;7.80;;
40433;SDS011;26146;51.114;5.654;2023-04-05T04:16:00;21.13;;;7.90;;
40433;SDS011;26146;51.114;5.654;2023-04-05T04:20:02;18.70;;;7.60;;
40433;SDS011;26146;51.114;5.654;2023-04-05T04:24:09;20.00;;;7.57;;
40433;SDS011;26146;51.114;5.654;2023-04-05T04:28:15;19.63;;;6.80;;
40433;SDS011;26146;51.114;5.654;2023-04-05T04:32:18;19.27;;;8.03;;
40433;SDS011;26146;51.114;5.654;2023-04-05T04:36:26;20.83;;;7.87;;
40433;SDS011;26146;51.114;5.654;2023-04-05T04:40:38;18.67;;;7.90;;
40433;SDS011;26146;51.114;5.654;2023-04-05T04:44:40;22.43;;;8.20;;
40433;SDS011;26146;51.114;5.654;2023-04-05T04:48:41;16.90;;;7.93;;
40433;SDS011;26146;51.114;5.654;2023-04-05T04:52:45;19.03;;;7.77;;
40433;SDS011;26146;51.114;5.654;2023-04-05T04:56:46;17.20;;;7.37;;
40433;SDS011;26146;51.114;5.654;2023-04-05T05:00:47;19.17;;;7.67;;
40433;SDS011;26146;51.114;5.654;2023-04-05T05:04:48;16.83;;;7.40;;
40433;SDS011;26146;51.114;5.654;2023-04-05T05:08:49;21.60;;;7.67;;
40433;SDS011;26146;51.114;5.654;2023-04-05T05:12:50;18.67;;;7.90;;
40433;SDS011;26146;51.114;5.654;2023-04-05T05:16:52;16.63;;;7.43;;
40433;SDS011;26146;51.114;5.654;2023-04-05T05:20:53;17.87;;;7.80;;
40433;SDS011;26146;51.114;5.654;2023-04-05T05:24:54;19.50;;;8.13;;
40433;SDS011;26146;51.114;5.654;2023-04-05T05:29:02;18.63;;;8.50;;
40433;SDS011;26146;51.114;5.654;2023-04-05T05:33:03;17.40;;;8.10;;
40433;SDS011;26146;51.114;5.654;2023-04-05T05:37:04;18.83;;;8.10;;
40433;SDS011;26146;51.114;5.654;2023-04-05T05:41:06;18.20;;;8.30;;
40433;SDS011;26146;51.114;5.654;2023-04-05T05:45:07;18.77;;;8.10;;
40433;SDS011;26146;51.114;5.654;2023-04-05T05:49:08;22.77;;;8.40;;
40433;SDS011;26146;51.114;5.654;2023-04-05T05:53:09;17.73;;;7.83;;
40433;SDS011;26146;51.114;5.654;2023-04-05T05:57:10;20.07;;;8.20;;
40433;SDS011;26146;51.114;5.654;2023-04-05T06:01:11;18.17;;;8.67;;
40433;SDS011;26146;51.114;5.654;2023-04-05T06:05:12;21.00;;;8.77;;
40433;SDS011;26146;51.114;5.654;2023-04-05T06:09:13;18.50;;;8.07;;
40433;SDS011;26146;51.114;5.654;2023-04-05T06:13:15;21.83;;;8.50;;
40433;SDS011;26146;51.114;5.654;2023-04-05T06:17:16;20.80;;;8.57;;
40433;SDS011;26146;51.114;5.654;2023-04-05T06:21:19;17.73;;;8.73;;
40433;SDS011;26146;51.114;5.654;2023-04-05T06:25:20;19.83;;;9.23;;
40433;SDS011;26146;51.114;5.654;2023-04-05T06:29:22;20.30;;;9.27;;
40433;SDS011;26146;51.114;5.654;2023-04-05T06:33:23;22.17;;;10.60;;
40433;SDS011;26146;51.114;5.654;2023-04-05T06:37:26;16.23;;;8.90;;
40433;SDS011;26146;51.114;5.654;2023-04-05T06:41:27;21.63;;;10.03;;
40433;SDS011;26146;51.114;5.654;2023-04-05T06:45:30;19.27;;;9.60;;
40433;SDS011;26146;51.114;5.654;2023-04-05T06:49:31;22.27;;;10.53;;
40433;SDS011;26146;51.114;5.654;2023-04-05T06:53:34;23.97;;;10.13;;
40433;SDS011;26146;51.114;5.654;2023-04-05T06:57:35;22.63;;;10.43;;
40433;SDS011;26146;51.114;5.654;2023-04-05T07:01:36;21.30;;;9.97;;
40433;SDS011;26146;51.114;5.654;2023-04-05T07:05:37;20.27;;;10.07;;
40433;SDS011;26146;51.114;5.654;2023-04-05T07:09:38;22.00;;;10.93;;
40433;SDS011;26146;51.114;5.654;2023-04-05T07:13:40;19.73;;;10.63;;
40433;SDS011;26146;51.114;5.654;2023-04-05T07:17:41;18.73;;;10.20;;
40433;SDS011;26146;51.114;5.654;2023-04-05T07:21:42;19.43;;;10.00;;
40433;SDS011;26146;51.114;5.654;2023-04-05T07:25:43;19.30;;;9.53;;
40433;SDS011;26146;51.114;5.654;2023-04-05T07:29:45;18.00;;;9.50;;
40433;SDS011;26146;51.114;5.654;2023-04-05T07:33:48;17.90;;;8.70;;
40433;SDS011;26146;51.114;5.654;2023-04-05T07:37:49;15.37;;;7.30;;
40433;SDS011;26146;51.114;5.654;2023-04-05T07:41:51;15.60;;;7.33;;
40433;SDS011;26146;51.114;5.654;2023-04-05T07:45:59;14.17;;;7.17;;
40433;SDS011;26146;51.114;5.654;2023-04-05T07:50:02;18.17;;;8.87;;
40433;SDS011;26146;51.114;5.654;2023-04-05T07:54:06;17.30;;;7.93;;
40433;SDS011;26146;51.114;5.654;2023-04-05T07:58:07;19.20;;;8.80;;
40433;SDS011;26146;51.114;5.654;2023-04-05T08:02:09;15.17;;;7.23;;
40433;SDS011;26146;51.114;5.654;2023-04-05T08:06:14;15.97;;;8.10;;
40433;SDS011;26146;51.114;5.654;2023-04-05T08:10:18;16.10;;;8.00;;
40433;SDS011;26146;51.114;5.654;2023-04-05T08:14:19;17.70;;;8.73;;
40433;SDS011;26146;51.114;5.654;2023-04-05T08:18:20;14.70;;;7.70;;
40433;SDS011;26146;51.114;5.654;2023-04-05T08:22:26;17.53;;;9.13;;
40433;SDS011;26146;51.114;5.654;2023-04-05T08:26:28;15.33;;;7.70;;
40433;SDS011;26146;51.114;5.654;2023-04-05T08:30:29;18.33;;;8.27;;
40433;SDS011;26146;51.114;5.654;2023-04-05T08:34:30;15.33;;;7.53;;
40433;SDS011;26146;51.114;5.654;2023-04-05T08:38:31;18.43;;;7.90;;
40433;SDS011;26146;51.114;5.654;2023-04-05T08:42:33;17.27;;;7.23;;
40433;SDS011;26146;51.114;5.654;2023-04-05T08:46:45;17.37;;;7.17;;
40433;SDS011;26146;51.114;5.654;2023-04-05T08:50:52;14.77;;;5.13;;
40433;SDS011;26146;51.114;5.654;2023-04-05T08:54:54;11.73;;;4.90;;
40433;SDS011;26146;51.114;5.654;2023-04-05T09:02:56;13.23;;;5.43;;
40433;SDS011;26146;51.114;5.654;2023-04-05T09:06:58;17.00;;;7.00;;
40433;SDS011;26146;51.114;5.654;2023-04-05T09:15:05;14.30;;;5.50;;
40433;SDS011;26146;51.114;5.654;2023-04-05T09:19:07;14.13;;;6.10;;
40433;SDS011;26146;51.114;5.654;2023-04-05T09:23:09;16.10;;;5.53;;
40433;SDS011;26146;51.114;5.654;2023-04-05T09:27:14;12.33;;;5.70;;
40433;SDS011;26146;51.114;5.654;2023-04-05T09:35:50;12.83;;;6.20;;
40433;SDS011;26146;51.114;5.654;2023-04-05T09:40:00;14.17;;;7.70;;
40433;SDS011;26146;51.114;5.654;2023-04-05T09:44:03;17.50;;;8.20;;
40433;SDS011;26146;51.114;5.654;2023-04-05T09:48:04;15.77;;;7.77;;
40433;SDS011;26146;51.114;5.654;2023-04-05T09:52:16;16.77;;;7.73;;
40433;SDS011;26146;51.114;5.654;2023-04-05T09:56:20;14.63;;;7.13;;
40433;SDS011;26146;51.114;5.654;2023-04-05T10:00:21;13.50;;;6.97;;
40433;SDS011;26146;51.114;5.654;2023-04-05T10:04:23;16.77;;;7.10;;
40433;SDS011;26146;51.114;5.654;2023-04-05T10:08:24;12.83;;;6.50;;
40433;SDS011;26146;51.114;5.654;2023-04-05T10:12:25;14.33;;;6.93;;
40433;SDS011;26146;51.114;5.654;2023-04-05T10:16:32;13.47;;;6.83;;
40433;SDS011;26146;51.114;5.654;2023-04-05T10:20:43;16.13;;;6.60;;
40433;SDS011;26146;51.114;5.654;2023-04-05T10:24:51;16.13;;;6.90;;
40433;SDS011;26146;51.114;5.654;2023-04-05T10:28:55;14.63;;;6.77;;
40433;SDS011;26146;51.114;5.654;2023-04-05T10:41:57;14.23;;;6.30;;
40433;SDS011;26146;51.114;5.654;2023-04-05T10:46:20;11.57;;;5.80;;
40433;SDS011;26146;51.114;5.654;2023-04-05T10:50:22;13.17;;;5.67;;
40433;SDS011;26146;51.114;5.654;2023-04-05T10:54:24;11.80;;;6.30;;
40433;SDS011;26146;51.114;5.654;2023-04-05T10:58:26;11.90;;;6.03;;
40433;SDS011;26146;51.114;5.654;2023-04-05T11:02:31;14.07;;;6.18;;
40433;SDS011;26146;51.114;5.654;2023-04-05T11:06:32;16.30;;;6.30;;
40433;SDS011;26146;51.114;5.654;2023-04-05T11:10:35;11.67;;;5.80;;
40433;SDS011;26146;51.114;5.654;2023-04-05T11:14:37;11.80;;;5.63;;
40433;SDS011;26146;51.114;5.654;2023-04-05T11:18:49;16.73;;;7.90;;
40433;SDS011;26146;51.114;5.654;2023-04-05T11:22:54;15.03;;;6.40;;
40433;SDS011;26146;51.114;5.654;2023-04-05T11:26:55;15.20;;;6.17;;
40433;SDS011;26146;51.114;5.654;2023-04-05T11:31:10;14.67;;;6.20;;
40433;SDS011;26146;51.114;5.654;2023-04-05T11:35:15;15.20;;;7.10;;
40433;SDS011;26146;51.114;5.654;2023-04-05T11:39:22;14.30;;;6.10;;
40433;SDS011;26146;51.114;5.654;2023-04-05T11:43:24;14.27;;;6.10;;
40433;SDS011;26146;51.114;5.654;2023-04-05T11:47:29;15.88;;;6.50;;
40433;SDS011;26146;51.114;5.654;2023-04-05T11:51:36;13.80;;;6.77;;
40433;SDS011;26146;51.114;5.654;2023-04-05T11:55:39;12.33;;;6.13;;
40433;SDS011;26146;51.114;5.654;2023-04-05T11:59:42;14.07;;;5.90;;
40433;SDS011;26146;51.114;5.654;2023-04-05T12:03:43;12.90;;;5.63;;
40433;SDS011;26146;51.114;5.654;2023-04-05T12:07:52;14.10;;;6.30;;
40433;SDS011;26146;51.114;5.654;2023-04-05T12:11:56;11.87;;;5.80;;
40433;SDS011;26146;51.114;5.654;2023-04-05T12:15:57;13.60;;;6.40;;
40433;SDS011;26146;51.114;5.654;2023-04-05T12:20:05;11.77;;;5.60;;
40433;SDS011;26146;51.114;5.654;2023-04-05T12:24:07;10.50;;;5.40;;
40433;SDS011;26146;51.114;5.654;2023-04-05T12:28:08;11.57;;;5.00;;
40433;SDS011;26146;51.114;5.654;2023-04-05T12:32:10;12.17;;;5.10;;
40433;SDS011;26146;51.114;5.654;2023-04-05T12:36:11;14.83;;;5.83;;
40433;SDS011;26146;51.114;5.654;2023-04-05T12:40:18;11.57;;;5.20;;
40433;SDS011;26146;51.114;5.654;2023-04-05T12:44:27;13.10;;;5.57;;
40433;SDS011;26146;51.114;5.654;2023-04-05T12:48:33;13.23;;;6.20;;
40433;SDS011;26146;51.114;5.654;2023-04-05T12:52:36;12.40;;;5.30;;
40433;SDS011;26146;51.114;5.654;2023-04-05T12:56:37;12.13;;;5.40;;
40433;SDS011;26146;51.114;5.654;2023-04-05T13:00:39;12.33;;;5.73;;
40433;SDS011;26146;51.114;5.654;2023-04-05T13:04:40;11.73;;;5.60;;
40433;SDS011;26146;51.114;5.654;2023-04-05T13:08:41;13.40;;;5.87;;
40433;SDS011;26146;51.114;5.654;2023-04-05T13:12:44;12.60;;;5.97;;
40433;SDS011;26146;51.114;5.654;2023-04-05T13:16:46;13.30;;;5.63;;
40433;SDS011;26146;51.114;5.654;2023-04-05T13:20:47;12.63;;;6.07;;
40433;SDS011;26146;51.114;5.654;2023-04-05T13:24:48;13.80;;;5.93;;
40433;SDS011;26146;51.114;5.654;2023-04-05T13:28:49;11.17;;;5.73;;
40433;SDS011;26146;51.114;5.654;2023-04-05T13:32:52;13.60;;;6.00;;
40433;SDS011;26146;51.114;5.654;2023-04-05T13:36:53;15.03;;;5.80;;
40433;SDS011;26146;51.114;5.654;2023-04-05T13:40:54;13.60;;;6.40;;
40433;SDS011;26146;51.114;5.654;2023-04-05T13:44:55;13.43;;;6.07;;
40433;SDS011;26146;51.114;5.654;2023-04-05T13:48:56;14.10;;;6.13;;
40433;SDS011;26146;51.114;5.654;2023-04-05T13:52:57;13.83;;;6.23;;
40433;SDS011;26146;51.114;5.654;2023-04-05T13:56:58;12.33;;;6.17;;
40433;SDS011;26146;51.114;5.654;2023-04-05T14:00:59;12.43;;;6.00;;
40433;SDS011;26146;51.114;5.654;2023-04-05T14:05:00;13.77;;;6.60;;
40433;SDS011;26146;51.114;5.654;2023-04-05T14:09:04;11.87;;;5.90;;
40433;SDS011;26146;51.114;5.654;2023-04-05T14:13:05;13.87;;;6.43;;
40433;SDS011;26146;51.114;5.654;2023-04-05T14:17:06;12.40;;;5.83;;
40433;SDS011;26146;51.114;5.654;2023-04-05T14:21:07;11.63;;;5.93;;
40433;SDS011;26146;51.114;5.654;2023-04-05T14:25:08;14.43;;;6.30;;
40433;SDS011;26146;51.114;5.654;2023-04-05T14:29:10;13.53;;;5.90;;
40433;SDS011;26146;51.114;5.654;2023-04-05T14:33:11;11.17;;;5.80;;
40433;SDS011;26146;51.114;5.654;2023-04-05T14:37:13;13.43;;;5.70;;
40433;SDS011;26146;51.114;5.654;2023-04-05T14:41:17;12.73;;;5.90;;
40433;SDS011;26146;51.114;5.654;2023-04-05T14:45:18;13.17;;;5.57;;
40433;SDS011;26146;51.114;5.654;2023-04-05T14:49:19;12.10;;;5.67;;
40433;SDS011;26146;51.114;5.654;2023-04-05T14:53:22;13.50;;;6.10;;
40433;SDS011;26146;51.114;5.654;2023-04-05T14:57:24;11.97;;;5.93;;
40433;SDS011;26146;51.114;5.654;2023-04-05T15:01:24;12.07;;;5.93;;
40433;SDS011;26146;51.114;5.654;2023-04-05T15:05:25;12.37;;;5.77;;
40433;SDS011;26146;51.114;5.654;2023-04-05T15:09:26;13.47;;;5.90;;
40433;SDS011;26146;51.114;5.654;2023-04-05T15:13:28;12.80;;;6.10;;
40433;SDS011;26146;51.114;5.654;2023-04-05T15:17:29;12.07;;;5.27;;
40433;SDS011;26146;51.114;5.654;2023-04-05T15:21:30;13.50;;;5.93;;
40433;SDS011;26146;51.114;5.654;2023-04-05T15:25:31;14.13;;;5.97;;
40433;SDS011;26146;51.114;5.654;2023-04-05T15:29:32;14.17;;;5.50;;
40433;SDS011;26146;51.114;5.654;2023-04-05T15:33:33;11.50;;;5.50;;
40433;SDS011;26146;51.114;5.654;2023-04-05T15:37:35;10.37;;;5.13;;
40433;SDS011;26146;51.114;5.654;2023-04-05T15:41:36;14.87;;;5.70;;
40433;SDS011;26146;51.114;5.654;2023-04-05T15:45:37;12.60;;;5.27;;
40433;SDS011;26146;51.114;5.654;2023-04-05T15:49:40;11.30;;;5.30;;
40433;SDS011;26146;51.114;5.654;2023-04-05T15:53:42;13.63;;;5.90;;
40433;SDS011;26146;51.114;5.654;2023-04-05T15:57:43;12.70;;;5.70;;
40433;SDS011;26146;51.114;5.654;2023-04-05T16:01:44;12.03;;;5.83;;
40433;SDS011;26146;51.114;5.654;2023-04-05T16:05:45;10.57;;;5.20;;
40433;SDS011;26146;51.114;5.654;2023-04-05T16:09:46;13.07;;;5.80;;
40433;SDS011;26146;51.114;5.654;2023-04-05T16:13:48;12.77;;;6.40;;
40433;SDS011;26146;51.114;5.654;2023-04-05T16:17:49;14.83;;;6.00;;
40433;SDS011;26146;51.114;5.654;2023-04-05T16:21:50;12.50;;;5.80;;
40433;SDS011;26146;51.114;5.654;2023-04-05T16:25:52;12.07;;;5.90;;
40433;SDS011;26146;51.114;5.654;2023-04-05T16:29:55;12.93;;;6.30;;
40433;SDS011;26146;51.114;5.654;2023-04-05T16:33:56;11.97;;;5.53;;
40433;SDS011;26146;51.114;5.654;2023-04-05T16:37:59;15.20;;;6.37;;
40433;SDS011;26146;51.114;5.654;2023-04-05T16:42:02;13.57;;;5.90;;
40433;SDS011;26146;51.114;5.654;2023-04-05T16:46:03;12.57;;;6.13;;
40433;SDS011;26146;51.114;5.654;2023-04-05T16:50:04;12.90;;;5.90;;
40433;SDS011;26146;51.114;5.654;2023-04-05T16:54:05;13.07;;;6.30;;
40433;SDS011;26146;51.114;5.654;2023-04-05T16:58:06;13.37;;;6.03;;
40433;SDS011;26146;51.114;5.654;2023-04-05T17:02:07;15.00;;;6.77;;
40433;SDS011;26146;51.114;5.654;2023-04-05T17:06:08;14.17;;;6.70;;
40433;SDS011;26146;51.114;5.654;2023-04-05T17:10:10;13.70;;;6.73;;
40433;SDS011;26146;51.114;5.654;2023-04-05T17:14:11;15.20;;;6.83;;
40433;SDS011;26146;51.114;5.654;2023-04-05T17:18:15;13.73;;;6.67;;
40433;SDS011;26146;51.114;5.654;2023-04-05T17:22:16;16.07;;;6.93;;
40433;SDS011;26146;51.114;5.654;2023-04-05T17:26:17;14.10;;;6.63;;
40433;SDS011;26146;51.114;5.654;2023-04-05T17:30:18;14.60;;;6.83;;
40433;SDS011;26146;51.114;5.654;2023-04-05T17:34:19;15.70;;;6.77;;
40433;SDS011;26146;51.114;5.654;2023-04-05T17:38:20;15.67;;;6.50;;
40433;SDS011;26146;51.114;5.654;2023-04-05T17:42:23;17.80;;;7.67;;
40433;SDS011;26146;51.114;5.654;2023-04-05T17:46:24;16.63;;;8.07;;
40433;SDS011;26146;51.114;5.654;2023-04-05T17:50:26;17.73;;;8.87;;
40433;SDS011;26146;51.114;5.654;2023-04-05T17:54:27;23.00;;;12.27;;
40433;SDS011;26146;51.114;5.654;2023-04-05T17:58:29;42.80;;;23.60;;
40433;SDS011;26146;51.114;5.654;2023-04-05T18:02:31;34.30;;;19.60;;
40433;SDS011;26146;51.114;5.654;2023-04-05T18:06:36;18.10;;;9.93;;
40433;SDS011;26146;51.114;5.654;2023-04-05T18:10:37;15.70;;;7.37;;
40433;SDS011;26146;51.114;5.654;2023-04-05T18:14:40;15.10;;;7.20;;
40433;SDS011;26146;51.114;5.654;2023-04-05T18:18:41;14.37;;;6.93;;
40433;SDS011;26146;51.114;5.654;2023-04-05T18:22:44;15.23;;;7.17;;
40433;SDS011;26146;51.114;5.654;2023-04-05T18:26:45;20.03;;;11.97;;
40433;SDS011;26146;51.114;5.654;2023-04-05T18:30:46;17.07;;;8.77;;
40433;SDS011;26146;51.114;5.654;2023-04-05T18:34:49;15.50;;;8.10;;
40433;SDS011;26146;51.114;5.654;2023-04-05T18:38:53;16.93;;;8.20;;
40433;SDS011;26146;51.114;5.654;2023-04-05T18:42:57;15.67;;;7.37;;
40433;SDS011;26146;51.114;5.654;2023-04-05T18:46:58;20.20;;;10.40;;
40433;SDS011;26146;51.114;5.654;2023-04-05T18:51:02;16.07;;;8.70;;
40433;SDS011;26146;51.114;5.654;2023-04-05T18:55:03;15.83;;;7.50;;
40433;SDS011;26146;51.114;5.654;2023-04-05T18:59:05;16.37;;;6.63;;
40433;SDS011;26146;51.114;5.654;2023-04-05T19:03:06;16.37;;;7.30;;
40433;SDS011;26146;51.114;5.654;2023-04-05T19:07:07;15.17;;;6.73;;
40433;SDS011;26146;51.114;5.654;2023-04-05T19:11:16;14.39;;;6.87;;
40433;SDS011;26146;51.114;5.654;2023-04-05T19:15:18;15.03;;;6.83;;
40433;SDS011;26146;51.114;5.654;2023-04-05T19:19:19;16.90;;;7.47;;
40433;SDS011;26146;51.114;5.654;2023-04-05T19:23:20;14.83;;;7.03;;
40433;SDS011;26146;51.114;5.654;2023-04-05T19:27:21;15.67;;;7.53;;
40433;SDS011;26146;51.114;5.654;2023-04-05T19:31:22;16.03;;;7.33;;
40433;SDS011;26146;51.114;5.654;2023-04-05T19:35:23;14.30;;;7.00;;
40433;SDS011;26146;51.114;5.654;2023-04-05T19:39:26;14.73;;;7.60;;
40433;SDS011;26146;51.114;5.654;2023-04-05T19:43:28;15.27;;;7.73;;
40433;SDS011;26146;51.114;5.654;2023-04-05T19:47:30;17.33;;;7.07;;
40433;SDS011;26146;51.114;5.654;2023-04-05T19:51:32;17.50;;;6.80;;
40433;SDS011;26146;51.114;5.654;2023-04-05T19:55:38;14.47;;;6.83;;
40433;SDS011;26146;51.114;5.654;2023-04-05T19:59:39;16.20;;;6.43;;
40433;SDS011;26146;51.114;5.654;2023-04-05T20:03:40;14.43;;;6.90;;
40433;SDS011;26146;51.114;5.654;2023-04-05T20:07:43;17.77;;;7.13;;
40433;SDS011;26146;51.114;5.654;2023-04-05T20:11:46;16.03;;;7.43;;
40433;SDS011;26146;51.114;5.654;2023-04-05T20:16:09;15.60;;;8.07;;
40433;SDS011;26146;51.114;5.654;2023-04-05T20:20:11;18.13;;;8.13;;
40433;SDS011;26146;51.114;5.654;2023-04-05T20:24:13;16.00;;;8.23;;
40433;SDS011;26146;51.114;5.654;2023-04-05T20:32:33;18.33;;;9.07;;
40433;SDS011;26146;51.114;5.654;2023-04-05T20:40:53;28.53;;;15.00;;
40433;SDS011;26146;51.114;5.654;2023-04-05T20:44:54;78.87;;;31.07;;
40433;SDS011;26146;51.114;5.654;2023-04-05T20:48:56;72.83;;;30.13;;
40433;SDS011;26146;51.114;5.654;2023-04-05T20:52:57;29.57;;;14.07;;
40433;SDS011;26146;51.114;5.654;2023-04-05T20:56:58;21.03;;;9.40;;
40433;SDS011;26146;51.114;5.654;2023-04-05T21:00:59;31.47;;;13.87;;
40433;SDS011;26146;51.114;5.654;2023-04-05T21:05:04;24.50;;;12.43;;
40433;SDS011;26146;51.114;5.654;2023-04-05T21:09:05;26.43;;;13.30;;
40433;SDS011;26146;51.114;5.654;2023-04-05T21:13:09;22.70;;;11.07;;
40433;SDS011;26146;51.114;5.654;2023-04-05T21:17:10;19.30;;;9.63;;
40433;SDS011;26146;51.114;5.654;2023-04-05T21:21:11;21.70;;;10.40;;
40433;SDS011;26146;51.114;5.654;2023-04-05T21:25:12;18.30;;;9.13;;
40433;SDS011;26146;51.114;5.654;2023-04-05T21:29:15;19.37;;;9.33;;
40433;SDS011;26146;51.114;5.654;2023-04-05T21:33:16;20.67;;;11.37;;
40433;SDS011;26146;51.114;5.654;2023-04-05T21:37:17;18.63;;;10.10;;
40433;SDS011;26146;51.114;5.654;2023-04-05T21:41:18;20.03;;;9.70;;
40433;SDS011;26146;51.114;5.654;2023-04-05T21:45:20;18.03;;;9.17;;
40433;SDS011;26146;51.114;5.654;2023-04-05T21:49:21;18.97;;;9.40;;
40433;SDS011;26146;51.114;5.654;2023-04-05T21:53:23;21.57;;;10.33;;
40433;SDS011;26146;51.114;5.654;2023-04-05T21:57:26;20.40;;;10.23;;
40433;SDS011;26146;51.114;5.654;2023-04-05T22:01:27;23.07;;;10.83;;
40433;SDS011;26146;51.114;5.654;2023-04-05T22:05:31;22.20;;;11.33;;
40433;SDS011;26146;51.114;5.654;2023-04-05T22:09:32;19.33;;;10.47;;
40433;SDS011;26146;51.114;5.654;2023-04-05T22:13:38;21.13;;;9.90;;
40433;SDS011;26146;51.114;5.654;2023-04-05T22:17:39;20.93;;;9.33;;
40433;SDS011;26146;51.114;5.654;2023-04-05T22:21:42;17.90;;;9.43;;
40433;SDS011;26146;51.114;5.654;2023-04-05T22:25:45;20.30;;;9.90;;
40433;SDS011;26146;51.114;5.654;2023-04-05T22:29:46;19.83;;;9.30;;
40433;SDS011;26146;51.114;5.654;2023-04-05T22:33:49;20.03;;;9.80;;
40433;SDS011;26146;51.114;5.654;2023-04-05T22:37:52;19.43;;;9.77;;
40433;SDS011;26146;51.114;5.654;2023-04-05T22:41:53;21.60;;;9.83;;
40433;SDS011;26146;51.114;5.654;2023-04-05T22:45:54;22.10;;;10.30;;
40433;SDS011;26146;51.114;5.654;2023-04-05T22:49:55;19.40;;;9.87;;
40433;SDS011;26146;51.114;5.654;2023-04-05T22:53:56;20.17;;;9.63;;
40433;SDS011;26146;51.114;5.654;2023-04-05T22:57:57;23.70;;;10.37;;
40433;SDS011;26146;51.114;5.654;2023-04-05T23:01:58;18.50;;;9.50;;
40433;SDS011;26146;51.114;5.654;2023-04-05T23:05:59;21.00;;;9.80;;
40433;SDS011;26146;51.114;5.654;2023-04-05T23:10:00;19.40;;;9.73;;
40433;SDS011;26146;51.114;5.654;2023-04-05T23:14:01;22.10;;;10.33;;
40433;SDS011;26146;51.114;5.654;2023-04-05T23:18:02;20.63;;;9.70;;
40433;SDS011;26146;51.114;5.654;2023-04-05T23:22:03;18.23;;;10.00;;
40433;SDS011;26146;51.114;5.654;2023-04-05T23:26:04;19.90;;;10.07;;
40433;SDS011;26146;51.114;5.654;2023-04-05T23:30:05;22.50;;;10.13;;
40433;SDS011;26146;51.114;5.654;2023-04-05T23:34:07;19.27;;;9.97;;
40433;SDS011;26146;51.114;5.654;2023-04-05T23:38:08;20.37;;;10.73;;
40433;SDS011;26146;51.114;5.654;2023-04-05T23:42:09;21.13;;;10.10;;
40433;SDS011;26146;51.114;5.654;2023-04-05T23:46:10;20.17;;;10.03;;
40433;SDS011;26146;51.114;5.654;2023-04-05T23:50:11;21.27;;;10.57;;
40433;SDS011;26146;51.114;5.654;2023-04-05T23:54:14;23.27;;;11.67;;
40433;SDS011;26146;51.114;5.654;2023-04-05T23:58:15;23.87;;;11.63;;
